Time;durP1;ratioP1;P1;durP2;ratioP2;P2;SDS_P1;SDS_P2;PMS_P1;PMS_P2;Temp;Humidity;BMP_temperature;BMP_pressure;BME280_temperature;BME280_humidity;BME280_pressure;Samples;Min_cycle;Max_cycle;Signal;HPM_P1;HPM_P2
2021/05/29 00:00:55;;;;;;;2.22;2.03;;;13.10;99.90;;;;;;4978126;28;20031;-74
2021/05/29 00:03:23;;;;;;;2.83;2.53;;;13.10;99.90;;;;;;4977540;28;20041;-74
2021/05/29 00:05:50;;;;;;;2.55;2.20;;;13.00;99.90;;;;;;4978094;28;20078;-73
2021/05/29 00:08:16;;;;;;;5.05;2.42;;;13.00;99.90;;;;;;4978801;28;20019;-74
2021/05/29 00:10:44;;;;;;;3.92;2.38;;;13.00;99.90;;;;;;4978060;28;20403;-75
2021/05/29 00:13:13;;;;;;;2.85;2.65;;;13.00;99.90;;;;;;4978172;28;20030;-73
2021/05/29 00:15:40;;;;;;;2.88;2.67;;;12.90;99.90;;;;;;4977771;28;20023;-74
2021/05/29 00:18:06;;;;;;;4.68;2.65;;;13.00;99.90;;;;;;4977476;28;20562;-74
2021/05/29 00:20:33;;;;;;;2.83;2.63;;;12.90;99.90;;;;;;4978838;28;20025;-74
2021/05/29 00:22:59;;;;;;;5.13;2.67;;;12.90;99.90;;;;;;4977905;28;20160;-73
2021/05/29 00:25:25;;;;;;;3.50;2.20;;;12.90;99.90;;;;;;4977297;28;20100;-73
2021/05/29 00:27:50;;;;;;;2.17;2.00;;;12.90;99.90;;;;;;4991240;28;20112;-72
2021/05/29 00:30:17;;;;;;;3.00;2.05;;;12.90;99.90;;;;;;4981141;28;20031;-74
2021/05/29 00:32:42;;;;;;;2.50;2.10;;;12.90;99.90;;;;;;4980378;28;20109;-73
2021/05/29 00:35:10;;;;;;;3.50;2.50;;;12.80;99.90;;;;;;4982667;28;20046;-71
2021/05/29 00:37:37;;;;;;;9.63;2.10;;;12.80;99.90;;;;;;4980953;28;20070;-73
2021/05/29 00:40:07;;;;;;;2.67;2.20;;;12.90;99.90;;;;;;4980373;28;20023;-73
2021/05/29 00:42:33;;;;;;;2.77;2.23;;;12.90;99.90;;;;;;4980378;28;20034;-72
2021/05/29 00:45:00;;;;;;;2.45;2.25;;;12.90;99.90;;;;;;4978138;28;20289;-73
2021/05/29 00:47:28;;;;;;;2.42;2.20;;;12.90;99.90;;;;;;4978905;28;20034;-74
2021/05/29 00:49:56;;;;;;;2.90;2.10;;;12.80;99.90;;;;;;4977056;28;20031;-73
2021/05/29 00:52:25;;;;;;;3.78;2.33;;;12.80;99.90;;;;;;4976375;28;20031;-75
2021/05/29 00:54:52;;;;;;;3.90;2.40;;;12.80;99.90;;;;;;4974864;28;20023;-74
2021/05/29 00:57:18;;;;;;;3.03;2.20;;;12.80;99.90;;;;;;4976320;28;20105;-75
2021/05/29 00:59:44;;;;;;;2.25;2.03;;;13.10;99.90;;;;;;4980000;28;20259;-72
2021/05/29 01:02:12;;;;;;;3.15;2.35;;;13.20;99.90;;;;;;4980890;28;20019;-73
2021/05/29 01:04:38;;;;;;;3.25;2.20;;;13.20;99.90;;;;;;4981269;28;20046;-73
2021/05/29 01:07:09;;;;;;;2.92;2.70;;;13.10;99.90;;;;;;4980840;28;20031;-73
2021/05/29 01:09:39;;;;;;;2.92;2.30;;;13.00;99.90;;;;;;4988952;28;20061;-73
2021/05/29 01:12:07;;;;;;;2.90;2.70;;;12.80;99.90;;;;;;5001459;28;20036;-74
2021/05/29 01:14:34;;;;;;;2.83;2.58;;;12.70;99.90;;;;;;5000986;28;20232;-73
2021/05/29 01:17:04;;;;;;;3.42;2.47;;;12.60;99.90;;;;;;4998407;28;20026;-74
2021/05/29 01:19:30;;;;;;;5.18;2.78;;;12.60;99.90;;;;;;4997173;28;20018;-72
2021/05/29 01:21:57;;;;;;;5.45;2.53;;;12.70;99.90;;;;;;4994971;28;20066;-74
2021/05/29 01:24:24;;;;;;;3.88;2.60;;;12.80;99.90;;;;;;4994737;28;20594;-74
2021/05/29 01:26:52;;;;;;;3.00;2.45;;;12.70;99.90;;;;;;4994960;28;20395;-74
2021/05/29 01:29:17;;;;;;;3.38;2.53;;;12.80;99.90;;;;;;4987158;28;20031;-73
2021/05/29 01:31:47;;;;;;;3.35;2.47;;;12.90;99.90;;;;;;4994970;28;20030;-72
2021/05/29 01:34:14;;;;;;;4.10;2.58;;;13.00;99.90;;;;;;4995196;28;20057;-72
2021/05/29 01:36:40;;;;;;;3.50;3.00;;;13.00;99.90;;;;;;4994294;28;20022;-73
2021/05/29 01:39:11;;;;;;;5.07;2.63;;;13.00;99.90;;;;;;4995276;28;20549;-75
2021/05/29 01:41:37;;;;;;;3.60;2.05;;;12.90;99.90;;;;;;4995193;28;20607;-74
2021/05/29 01:44:08;;;;;;;4.15;2.80;;;12.80;99.90;;;;;;4994040;28;20081;-73
2021/05/29 01:46:34;;;;;;;4.20;2.90;;;12.90;99.90;;;;;;4996316;28;20096;-72
2021/05/29 01:49:00;;;;;;;3.78;3.38;;;12.70;99.90;;;;;;5011411;28;20030;-72
2021/05/29 01:51:25;;;;;;;3.15;2.67;;;12.70;99.90;;;;;;5011719;28;20026;-72
2021/05/29 01:53:52;;;;;;;5.32;3.30;;;12.60;99.90;;;;;;5013337;28;20036;-72
2021/05/29 01:56:19;;;;;;;4.47;3.35;;;12.60;99.90;;;;;;5013852;28;20030;-73
2021/05/29 01:58:45;;;;;;;3.88;3.58;;;12.60;99.90;;;;;;5019182;28;20038;-75
2021/05/29 02:01:12;;;;;;;5.25;4.60;;;12.50;99.90;;;;;;5003671;28;20038;-72
2021/05/29 02:03:40;;;;;;;3.22;2.92;;;12.50;99.90;;;;;;5001275;28;20053;-74
2021/05/29 02:06:06;;;;;;;3.53;3.22;;;12.40;99.90;;;;;;5013393;28;20049;-72
2021/05/29 02:08:32;;;;;;;4.30;3.63;;;12.40;99.90;;;;;;5015499;28;20026;-72
2021/05/29 02:11:00;;;;;;;4.18;3.58;;;12.50;99.90;;;;;;5016038;28;20038;-75
2021/05/29 02:13:31;;;;;;;4.15;3.75;;;12.40;99.90;;;;;;5003733;28;20057;-73
2021/05/29 02:15:58;;;;;;;;;;;12.30;99.90;;;;;;5007258;28;20030;-72
2021/05/29 02:18:24;;;;;;;5.68;4.35;;;12.30;99.90;;;;;;5006857;28;20008;-74
2021/05/29 02:20:54;;;;;;;5.53;4.00;;;12.30;99.90;;;;;;4999227;28;20023;-73
2021/05/29 02:23:22;;;;;;;5.37;3.73;;;12.20;99.90;;;;;;5000498;28;20034;-73
2021/05/29 02:25:49;;;;;;;4.03;3.30;;;12.10;99.90;;;;;;4999027;28;20439;-73
2021/05/29 02:28:16;;;;;;;4.65;3.70;;;12.10;99.90;;;;;;4996621;28;20026;-73
2021/05/29 02:30:42;;;;;;;4.40;4.00;;;12.00;99.90;;;;;;4988001;28;20031;-74
2021/05/29 02:33:08;;;;;;;5.10;4.05;;;12.00;99.90;;;;;;4999290;28;20026;-72
2021/05/29 02:35:35;;;;;;;5.88;4.20;;;12.00;99.90;;;;;;4999311;28;20398;-74
2021/05/29 02:38:00;;;;;;;3.40;3.10;;;11.90;99.90;;;;;;4999219;28;20023;-72
2021/05/29 02:40:26;;;;;;;4.40;3.55;;;11.90;99.90;;;;;;4999800;28;20050;-75
2021/05/29 02:42:52;;;;;;;5.45;3.95;;;11.80;99.90;;;;;;4998576;28;20041;-73
2021/05/29 02:45:18;;;;;;;4.13;3.20;;;11.70;99.90;;;;;;4999798;28;20087;-74
2021/05/29 02:47:43;;;;;;;4.93;4.10;;;11.60;1.00;;;;;;4998426;28;20066;-74
2021/05/29 02:50:10;;;;;;;4.38;3.97;;;11.60;1.00;;;;;;4997791;28;20037;-72
2021/05/29 02:52:36;;;;;;;4.32;4.00;;;11.50;1.00;;;;;;4997448;28;20418;-72
2021/05/29 02:55:02;;;;;;;4.18;3.78;;;11.50;1.00;;;;;;4997973;28;20109;-74
2021/05/29 02:57:28;;;;;;;4.97;4.05;;;11.50;1.00;;;;;;4997797;28;20022;-73
2021/05/29 02:59:53;;;;;;;3.83;3.38;;;11.50;1.00;;;;;;4999339;28;20034;-73
2021/05/29 03:02:19;;;;;;;4.32;3.70;;;11.40;1.00;;;;;;4997603;28;20029;-72
2021/05/29 03:04:44;;;;;;;5.47;3.40;;;11.40;1.00;;;;;;4994238;28;20054;-74
2021/05/29 03:07:10;;;;;;;4.18;3.15;;;11.40;1.00;;;;;;4997425;28;20031;-76
2021/05/29 03:09:36;;;;;;;3.60;3.30;;;11.30;1.00;;;;;;4996939;28;20061;-74
2021/05/29 03:12:02;;;;;;;5.90;3.17;;;11.30;1.00;;;;;;4995845;28;20022;-74
2021/05/29 03:14:28;;;;;;;3.97;3.58;;;11.30;1.00;;;;;;5011960;28;20410;-73
2021/05/29 03:16:53;;;;;;;3.78;3.33;;;11.20;1.00;;;;;;4995329;28;20037;-74
2021/05/29 03:19:19;;;;;;;4.78;3.60;;;11.20;1.00;;;;;;4996774;28;20428;-73
2021/05/29 03:21:45;;;;;;;3.95;3.60;;;11.20;1.00;;;;;;4997084;28;20022;-73
2021/05/29 03:24:11;;;;;;;3.60;3.30;;;11.20;1.00;;;;;;4997315;28;20035;-74
2021/05/29 03:26:37;;;;;;;3.88;3.50;;;11.10;1.00;;;;;;4996534;28;20027;-73
2021/05/29 03:29:04;;;;;;;3.85;3.40;;;11.10;1.00;;;;;;4988043;28;20023;-74
2021/05/29 03:31:30;;;;;;;6.93;4.20;;;11.10;1.00;;;;;;4977239;28;20031;-74
2021/05/29 03:33:56;;;;;;;4.00;3.60;;;11.20;1.00;;;;;;4976934;28;20476;-74
2021/05/29 03:36:21;;;;;;;4.53;3.92;;;11.20;1.00;;;;;;4976869;28;20029;-75
2021/05/29 03:38:47;;;;;;;4.30;3.95;;;11.30;1.00;;;;;;4975706;28;20085;-73
2021/05/29 03:41:13;;;;;;;3.60;3.30;;;11.30;1.00;;;;;;4975805;28;20491;-74
2021/05/29 03:43:38;;;;;;;5.65;3.35;;;11.50;1.00;;;;;;4994013;28;20022;-74
2021/05/29 03:46:05;;;;;;;4.32;3.42;;;11.60;1.00;;;;;;4994050;28;20045;-74
2021/05/29 03:48:32;;;;;;;4.15;3.55;;;11.70;1.00;;;;;;4988800;28;20117;-73
2021/05/29 03:50:58;;;;;;;4.90;3.42;;;11.90;99.90;;;;;;4978687;28;20033;-74
2021/05/29 03:53:24;;;;;;;3.63;3.20;;;12.00;99.90;;;;;;4978183;28;20030;-75
2021/05/29 03:55:50;;;;;;;3.60;3.30;;;12.30;99.90;;;;;;4976138;28;20022;-73
2021/05/29 03:58:16;;;;;;;5.10;3.30;;;12.50;99.90;;;;;;4976539;28;20510;-74
2021/05/29 04:00:41;;;;;;;7.20;4.10;;;12.60;99.90;;;;;;4977529;28;20027;-73
2021/05/29 04:03:07;;;;;;;7.72;3.05;;;12.60;99.90;;;;;;4976827;28;20023;-75
2021/05/29 04:05:32;;;;;;;6.03;3.10;;;12.70;99.90;;;;;;4976446;28;20165;-74
2021/05/29 04:07:58;;;;;;;4.82;3.25;;;12.80;99.90;;;;;;4976121;28;20101;-75
2021/05/29 04:10:26;;;;;;;5.78;2.65;;;12.90;99.90;;;;;;4976373;28;20082;-73
2021/05/29 04:12:53;;;;;;;3.40;2.45;;;13.10;99.90;;;;;;4976573;28;20372;-73
2021/05/29 04:15:18;;;;;;;4.95;3.08;;;13.40;99.90;;;;;;4976266;28;20019;-73
2021/05/29 04:17:45;;;;;;;3.05;2.78;;;13.60;99.90;;;;;;4974855;28;20023;-76
2021/05/29 04:20:13;;;;;;;4.57;2.70;;;13.90;99.90;;;;;;4976237;28;20047;-73
2021/05/29 04:22:39;;;;;;;3.78;2.53;;;14.50;99.90;;;;;;4975953;28;20499;-73
2021/05/29 04:25:08;;;;;;;2.95;2.65;;;14.70;1.00;;;;;;4975920;28;20039;-74
2021/05/29 04:27:34;;;;;;;4.30;3.08;;;14.70;1.00;;;;;;4983027;28;20081;-73
2021/05/29 04:30:00;;;;;;;3.20;2.80;;;15.20;99.90;;;;;;4987075;28;20101;-74
2021/05/29 04:32:25;;;;;;;4.22;2.70;;;15.80;99.90;;;;;;4993897;28;20478;-74
2021/05/29 04:34:51;;;;;;;3.58;3.28;;;15.50;2.80;;;;;;4995861;28;20029;-75
2021/05/29 04:37:17;;;;;;;5.95;2.45;;;15.60;99.90;;;;;;4995132;28;20029;-75
2021/05/29 04:39:45;;;;;;;2.55;2.35;;;15.40;1.00;;;;;;4995139;28;20027;-74
2021/05/29 04:42:11;;;;;;;3.08;2.60;;;15.60;99.90;;;;;;4994862;28;20474;-74
2021/05/29 04:44:37;;;;;;;2.58;2.08;;;15.20;99.90;;;;;;4995176;28;20112;-76
2021/05/29 04:47:03;;;;;;;2.95;2.20;;;15.20;99.90;;;;;;4994827;28;20442;-74
2021/05/29 04:49:29;;;;;;;4.38;2.65;;;15.20;1.00;;;;;;4995110;28;20088;-75
2021/05/29 04:51:58;;;;;;;4.30;2.55;;;15.30;99.90;;;;;;4992989;28;20030;-74
2021/05/29 04:54:24;;;;;;;3.97;2.47;;;15.20;99.90;;;;;;4995162;28;20033;-75
2021/05/29 04:56:50;;;;;;;3.15;2.38;;;15.30;99.90;;;;;;4995417;28;20022;-74
2021/05/29 04:59:16;;;;;;;3.45;2.78;;;16.20;99.90;;;;;;4994556;28;20092;-74
2021/05/29 05:01:41;;;;;;;5.00;2.72;;;16.60;99.90;;;;;;5009719;28;20092;-74
2021/05/29 05:04:07;;;;;;;3.88;3.05;;;17.50;99.90;;;;;;4983298;28;20467;-76
2021/05/29 05:06:33;;;;;;;2.55;2.35;;;18.30;99.90;;;;;;4974992;28;20034;-74
2021/05/29 05:08:59;;;;;;;2.78;2.25;;;18.30;99.90;;;;;;4976769;28;20023;-73
2021/05/29 05:11:26;;;;;;;7.25;2.67;;;18.70;99.90;;;;;;4976597;28;20033;-74
2021/05/29 05:13:51;;;;;;;2.53;2.08;;;18.20;99.90;;;;;;4976257;28;20023;-74
2021/05/29 05:16:17;;;;;;;3.92;1.98;;;19.80;1.00;;;;;;4974979;28;20030;-73
2021/05/29 05:18:44;;;;;;;7.50;2.65;;;19.70;99.90;;;;;;4976683;28;20514;-73
2021/05/29 05:21:10;;;;;;;5.80;4.25;;;19.30;99.90;;;;;;4979801;28;20065;-74
2021/05/29 05:23:36;;;;;;;2.22;2.00;;;19.20;99.90;;;;;;4986345;28;20027;-75
2021/05/29 05:26:02;;;;;;;8.10;2.50;;;18.50;1.00;;;;;;4978413;28;20123;-74
2021/05/29 05:28:29;;;;;;;4.75;3.25;;;18.30;1.00;;;;;;4977693;28;20108;-74
2021/05/29 05:30:56;;;;;;;2.35;2.15;;;18.00;3.30;;;;;;4979886;28;20023;-74
2021/05/29 05:33:22;;;;;;;3.13;2.25;;;18.00;99.90;;;;;;4981365;28;20023;-75
2021/05/29 05:35:48;;;;;;;2.38;2.00;;;18.30;1.00;;;;;;4989547;28;20049;-75
2021/05/29 05:38:14;;;;;;;2.63;2.03;;;18.50;1.00;;;;;;4995766;28;20108;-73
2021/05/29 05:40:40;;;;;;;2.00;1.80;;;19.90;99.90;;;;;;4993883;28;20019;-75
2021/05/29 05:43:05;;;;;;;3.78;2.50;;;21.00;26.80;;;;;;4997751;28;20026;-74
2021/05/29 05:45:31;;;;;;;3.38;2.13;;;20.70;1.00;;;;;;4995456;28;20032;-74
2021/05/29 05:47:57;;;;;;;1.90;1.70;;;19.70;1.00;;;;;;4995096;28;20457;-75
2021/05/29 05:50:22;;;;;;;1.98;1.65;;;20.40;1.00;;;;;;4994838;28;20394;-76
2021/05/29 05:52:48;;;;;;;1.85;1.75;;;19.90;1.00;;;;;;4993079;28;20027;-75
2021/05/29 05:55:14;;;;;;;2.30;2.10;;;20.90;1.00;;;;;;4994434;28;20050;-76
2021/05/29 05:57:40;;;;;;;3.08;1.80;;;20.50;1.00;;;;;;4994196;28;20426;-75
2021/05/29 06:00:08;;;;;;;2.15;1.73;;;20.90;1.00;;;;;;4994166;28;20098;-75
2021/05/29 06:02:34;;;;;;;3.20;1.85;;;20.90;99.90;;;;;;4992750;28;20030;-76
2021/05/29 06:05:00;;;;;;;3.55;2.00;;;21.40;99.90;;;;;;4995121;28;20026;-75
2021/05/29 06:07:25;;;;;;;1.80;1.50;;;21.30;99.90;;;;;;4994386;28;20148;-76
2021/05/29 06:09:51;;;;;;;2.78;2.30;;;20.80;99.90;;;;;;4994454;28;20026;-77
2021/05/29 06:12:17;;;;;;;2.28;1.88;;;20.30;99.90;;;;;;4992405;28;20035;-75
2021/05/29 06:20:13;;;;;;;2.33;2.03;;;20.40;99.90;;;;;;4994345;28;20045;-75
2021/05/29 06:22:42;;;;;;;3.40;2.30;;;19.30;1.00;;;;;;4994432;28;20022;-75
2021/05/29 06:25:09;;;;;;;2.50;2.25;;;18.50;1.00;;;;;;4994471;28;20022;-75
2021/05/29 06:27:36;;;;;;;2.78;1.90;;;18.00;31.30;;;;;;4994617;28;20058;-74
2021/05/29 06:30:04;;;;;;;2.08;1.88;;;17.20;99.90;;;;;;4994220;28;20115;-75
2021/05/29 06:32:30;;;;;;;2.75;2.05;;;17.40;1.00;;;;;;5002505;28;20061;-76
2021/05/29 06:34:55;;;;;;;2.78;1.83;;;16.90;99.90;;;;;;5007499;28;20030;-75
2021/05/29 06:37:21;;;;;;;4.30;1.75;;;16.90;99.90;;;;;;5002069;28;20034;-75
2021/05/29 06:39:47;;;;;;;6.75;2.58;;;16.90;99.90;;;;;;4993073;28;20371;-74
2021/05/29 06:42:13;;;;;;;4.53;2.03;;;16.90;99.90;;;;;;4994727;28;20077;-73
2021/05/29 06:44:38;;;;;;;2.22;1.85;;;16.90;99.90;;;;;;4996427;28;20026;-74
2021/05/29 06:47:05;;;;;;;4.90;1.98;;;16.50;99.90;;;;;;5014554;28;20056;-75
2021/05/29 06:49:30;;;;;;;3.85;2.05;;;16.60;99.90;;;;;;4994391;28;20402;-76
2021/05/29 06:52:01;;;;;;;2.80;1.80;;;16.60;1.00;;;;;;4989232;28;20118;-71
2021/05/29 07:00:08;;;;;;;2.28;2.08;;;16.90;68.70;;;;;;4978182;28;20529;-71
2021/05/29 07:02:34;;;;;;;4.30;2.30;;;16.70;1.00;;;;;;4979866;28;20022;-71
2021/05/29 07:05:02;;;;;;;2.75;2.50;;;16.60;1.00;;;;;;4983965;28;20030;-71
2021/05/29 07:07:27;;;;;;;2.42;2.10;;;16.60;99.90;;;;;;4995855;28;20026;-71
2021/05/29 07:09:53;;;;;;;4.00;2.10;;;17.00;99.90;;;;;;4983699;28;20038;-69
2021/05/29 07:12:18;;;;;;;3.58;1.98;;;17.20;53.10;;;;;;4996597;28;20030;-70
2021/05/29 07:14:44;;;;;;;3.25;1.92;;;17.20;64.50;;;;;;4996897;28;20395;-71
2021/05/29 07:17:10;;;;;;;2.60;2.40;;;16.90;76.70;;;;;;4996217;28;20023;-69
2021/05/29 07:19:35;;;;;;;3.28;2.33;;;16.80;99.90;;;;;;4991966;28;20019;-70
2021/05/29 07:22:01;;;;;;;2.95;2.22;;;16.80;99.90;;;;;;4980908;28;20041;-72
2021/05/29 07:24:27;;;;;;;1.95;1.80;;;16.80;91.80;;;;;;4977294;28;20034;-69
2021/05/29 07:26:53;;;;;;;2.00;1.80;;;17.10;61.00;;;;;;4992151;28;20208;-72
2021/05/29 07:29:19;;;;;;;2.65;1.75;;;17.40;36.30;;;;;;4984373;28;20482;-71
2021/05/29 07:31:45;;;;;;;3.47;1.63;;;17.60;8.80;;;;;;4985552;28;20106;-70
2021/05/29 07:34:12;;;;;;;4.03;2.40;;;17.80;1.00;;;;;;4977206;28;20041;-72
2021/05/29 07:36:39;;;;;;;3.83;2.25;;;17.80;1.00;;;;;;4984697;28;20034;-70
2021/05/29 07:39:06;;;;;;;1.70;1.60;;;17.50;1.00;;;;;;4985427;28;20403;-71
2021/05/29 07:41:33;;;;;;;2.90;2.10;;;17.80;1.00;;;;;;4982906;28;20506;-70
2021/05/29 07:43:58;;;;;;;2.17;1.95;;;17.90;1.00;;;;;;4989966;28;20407;-70
2021/05/29 07:46:25;;;;;;;3.13;1.60;;;17.60;1.00;;;;;;4996271;28;20037;-71
2021/05/29 07:48:51;;;;;;;1.58;1.33;;;17.80;1.00;;;;;;4994891;28;20022;-72
2021/05/29 07:51:17;;;;;;;1.83;1.52;;;18.10;1.00;;;;;;4993242;28;20027;-70
2021/05/29 07:53:43;;;;;;;2.00;1.70;;;18.20;1.00;;;;;;4981126;28;20031;-71
2021/05/29 07:56:16;;;;;;;2.13;1.60;;;18.10;1.00;;;;;;4979644;28;20030;-71
2021/05/29 07:58:43;;;;;;;1.60;1.35;;;18.20;1.00;;;;;;5004229;23;20077;-78
2021/05/29 08:01:09;;;;;;;3.05;1.20;;;18.70;1.00;;;;;;5015039;28;20097;-78
2021/05/29 08:03:36;;;;;;;1.60;1.25;;;18.70;1.00;;;;;;5012600;28;20030;-78
2021/05/29 08:06:09;;;;;;;1.42;1.00;;;18.80;1.00;;;;;;5014524;28;20486;-78
2021/05/29 08:08:35;;;;;;;2.72;1.17;;;18.70;1.00;;;;;;5017337;28;20018;-81
2021/05/29 08:11:03;;;;;;;2.30;1.40;;;18.80;1.00;;;;;;5017687;28;20025;-81
2021/05/29 08:13:29;;;;;;;1.95;1.20;;;18.80;1.00;;;;;;5017230;28;20033;-82
2021/05/29 08:15:54;;;;;;;1.58;1.30;;;18.80;1.00;;;;;;5010383;28;20026;-82
2021/05/29 08:18:20;;;;;;;1.45;1.10;;;18.40;1.00;;;;;;4997464;28;20022;-79
2021/05/29 08:20:48;;;;;;;1.80;1.20;;;18.60;1.00;;;;;;4995948;28;20022;-80
2021/05/29 08:23:14;;;;;;;2.08;1.30;;;18.50;1.00;;;;;;5007544;28;20471;-79
2021/05/29 08:25:39;;;;;;;1.33;1.20;;;18.40;1.00;;;;;;4998961;28;20117;-80
2021/05/29 08:28:05;;;;;;;2.05;1.20;;;18.50;1.00;;;;;;5002683;28;20065;-81
2021/05/29 08:30:32;;;;;;;1.30;1.20;;;18.80;1.00;;;;;;4993232;28;20097;-79
2021/05/29 08:32:58;;;;;;;1.20;0.80;;;18.60;1.00;;;;;;4994319;28;20030;-78
2021/05/29 08:35:24;;;;;;;1.00;0.90;;;18.70;1.00;;;;;;4994764;28;20098;-79
2021/05/29 08:37:49;;;;;;;1.30;1.20;;;18.70;1.00;;;;;;4993209;28;20056;-79
2021/05/29 08:40:17;;;;;;;3.97;1.38;;;18.50;1.00;;;;;;4994473;28;20027;-79
2021/05/29 08:42:44;;;;;;;1.92;1.33;;;18.80;1.00;;;;;;4994411;28;20110;-79
2021/05/29 08:45:11;;;;;;;1.30;1.20;;;18.90;1.00;;;;;;4993984;28;20033;-80
2021/05/29 08:47:38;;;;;;;2.85;1.50;;;18.90;1.00;;;;;;4993057;28;20030;-79
2021/05/29 08:50:06;;;;;;;2.50;1.55;;;19.10;1.00;;;;;;4993293;28;20125;-80
2021/05/29 08:52:38;;;;;;;4.03;1.30;;;19.20;1.00;;;;;;4993658;28;20041;-79
2021/05/29 08:55:09;;;;;;;1.17;1.08;;;19.10;1.00;;;;;;4992785;28;20505;-79
2021/05/29 08:57:36;;;;;;;1.80;1.17;;;19.30;1.00;;;;;;4992668;28;20026;-78
2021/05/29 09:00:05;;;;;;;4.63;1.40;;;19.30;1.00;;;;;;4993314;28;20081;-79
2021/05/29 09:02:31;;;;;;;1.30;1.20;;;19.50;1.00;;;;;;4994410;28;20106;-79
2021/05/29 09:05:03;;;;;;;5.63;1.35;;;19.50;1.00;;;;;;4994334;28;20113;-79
2021/05/29 09:07:29;;;;;;;3.60;1.30;;;19.50;1.00;;;;;;4992413;28;20026;-80
2021/05/29 09:10:19;;;;;;;4.60;1.23;;;19.60;1.00;;;;;;4994284;28;20062;-80
2021/05/29 09:13:08;;;;;;;1.77;1.20;;;19.60;1.00;;;;;;4992994;28;20427;-79
2021/05/29 09:16:00;;;;;;;1.40;1.10;;;19.60;1.00;;;;;;4992713;28;20022;-79
2021/05/29 09:18:40;;;;;;;2.03;1.60;;;19.20;1.00;;;;;;4989997;28;20031;-79
2021/05/29 09:21:26;;;;;;;3.38;1.17;;;19.00;1.00;;;;;;4994056;28;20030;-79
2021/05/29 09:24:15;;;;;;;1.27;1.00;;;19.10;1.00;;;;;;4992618;28;20365;-80
2021/05/29 09:26:54;;;;;;;1.35;1.25;;;18.70;1.00;;;;;;4998152;28;20011;-79
2021/05/29 09:29:25;;;;;;;1.35;1.17;;;19.20;1.00;;;;;;5010482;28;20029;-81
2021/05/29 09:32:04;;;;;;;2.70;1.63;;;19.80;1.00;;;;;;5010120;28;20088;-79
2021/05/29 09:34:40;;;;;;;1.40;1.30;;;20.00;1.00;;;;;;5008515;28;20049;-79
2021/05/29 09:37:16;;;;;;;2.10;1.63;;;19.50;1.00;;;;;;5007922;28;20026;-78
2021/05/29 09:39:45;;;;;;;1.08;0.98;;;19.40;1.00;;;;;;5007302;28;20022;-81
2021/05/29 09:42:11;;;;;;;2.03;1.42;;;19.40;1.00;;;;;;5009222;28;20061;-79
2021/05/29 09:44:37;;;;;;;3.15;1.33;;;19.80;1.00;;;;;;5006495;28;20121;-79
2021/05/29 09:47:08;;;;;;;1.50;1.33;;;20.00;1.00;;;;;;4998782;28;20100;-78
2021/05/29 09:49:52;;;;;;;1.55;1.30;;;20.70;1.00;;;;;;4995241;28;20410;-79
2021/05/29 09:52:38;;;;;;;2.17;1.17;;;20.70;1.00;;;;;;4994613;28;20043;-79
2021/05/29 09:55:09;;;;;;;1.30;1.20;;;20.50;1.00;;;;;;4994295;28;20022;-79
2021/05/29 09:57:50;;;;;;;4.03;1.35;;;20.30;1.00;;;;;;4992161;28;20464;-78
2021/05/29 10:00:16;;;;;;;;;;;20.40;1.00;;;;;;4994159;28;20026;-79
2021/05/29 10:03:09;;;;;;;1.80;1.30;;;20.50;1.00;;;;;;4992942;28;20289;-79
2021/05/29 10:05:37;;;;;;;1.80;1.55;;;20.50;1.00;;;;;;4991242;28;20045;-80
2021/05/29 10:08:06;;;;;;;1.60;1.17;;;20.00;1.00;;;;;;4993182;28;20033;-79
2021/05/29 10:10:35;;;;;;;1.60;1.27;;;20.30;1.00;;;;;;4994095;28;20037;-78
2021/05/29 10:13:02;;;;;;;4.47;1.55;;;20.00;1.00;;;;;;5011526;28;20030;-78
2021/05/29 10:15:27;;;;;;;3.38;1.50;;;20.50;1.00;;;;;;5010419;28;20049;-79
2021/05/29 10:17:56;;;;;;;1.73;1.63;;;20.50;1.00;;;;;;5007836;28;20030;-79
2021/05/29 10:20:22;;;;;;;2.47;1.30;;;20.00;1.00;;;;;;5007128;28;20061;-79
2021/05/29 10:22:48;;;;;;;1.52;1.33;;;19.60;1.00;;;;;;5005987;28;20026;-79
2021/05/29 10:25:20;;;;;;;3.70;1.80;;;20.00;1.00;;;;;;5002152;28;20129;-79
2021/05/29 10:27:54;;;;;;;1.98;1.20;;;20.20;1.00;;;;;;5012715;28;20030;-78
2021/05/29 10:30:22;;;;;;;1.25;1.15;;;20.60;1.00;;;;;;4996051;28;20193;-78
2021/05/29 10:33:12;;;;;;;1.88;1.60;;;20.80;1.00;;;;;;4997432;28;20113;-78
2021/05/29 10:35:39;;;;;;;2.20;1.33;;;20.60;1.00;;;;;;4997692;28;20387;-79
2021/05/29 10:38:07;;;;;;;2.65;0.90;;;20.60;1.00;;;;;;4995418;28;20066;-79
2021/05/29 10:40:36;;;;;;;1.30;1.08;;;20.60;1.00;;;;;;4995416;28;20393;-78
2021/05/29 10:43:29;;;;;;;4.53;0.90;;;20.20;1.00;;;;;;4996563;28;20037;-79
2021/05/29 10:45:55;;;;;;;1.30;1.10;;;20.40;1.00;;;;;;4997572;28;20046;-80
2021/05/29 10:48:22;;;;;;;1.20;1.02;;;20.70;1.00;;;;;;4996688;28;20169;-79
2021/05/29 10:53:50;;;;;;;1.15;0.95;;;20.70;1.00;;;;;;5000082;28;20066;-78
2021/05/29 10:56:18;;;;;;;1.20;1.08;;;20.10;1.00;;;;;;4998702;28;20018;-79
2021/05/29 10:59:06;;;;;;;1.00;0.90;;;20.30;1.00;;;;;;4995524;28;20038;-79
2021/05/29 11:01:35;;;;;;;0.90;0.90;;;20.10;1.00;;;;;;4997416;28;20077;-79
2021/05/29 11:04:23;;;;;;;2.13;1.20;;;19.80;1.00;;;;;;4996285;28;20030;-79
2021/05/29 11:06:52;;;;;;;1.23;0.80;;;20.20;1.00;;;;;;4995529;28;20030;-78
2021/05/29 11:09:29;;;;;;;0.90;0.88;;;20.20;1.00;;;;;;4997158;28;20034;-78
2021/05/29 11:11:57;;;;;;;1.75;0.98;;;20.60;1.00;;;;;;4996371;28;20128;-79
2021/05/29 11:14:59;;;;;;;1.85;0.88;;;20.40;1.00;;;;;;4996173;28;20022;-79
2021/05/29 11:17:26;;;;;;;4.07;0.80;;;20.00;1.00;;;;;;4993756;28;20026;-79
2021/05/29 11:20:14;;;;;;;1.27;0.65;;;19.90;1.00;;;;;;4994591;28;20041;-79
2021/05/29 11:22:49;;;;;;;1.13;0.63;;;20.70;1.00;;;;;;4995443;28;20062;-80
2021/05/29 11:25:20;;;;;;;0.60;0.60;;;20.60;1.00;;;;;;4995029;28;20026;-80
2021/05/29 11:27:48;;;;;;;1.52;0.60;;;20.50;1.00;;;;;;4996509;28;20022;-79
2021/05/29 11:30:18;;;;;;;1.38;1.02;;;20.30;1.00;;;;;;4994849;28;20069;-79
2021/05/29 11:35:45;;;;;;;0.57;0.57;;;20.80;1.00;;;;;;4995719;28;20014;-79
2021/05/29 11:38:13;;;;;;;2.25;0.75;;;20.80;1.00;;;;;;4994281;28;20033;-78
2021/05/29 11:40:45;;;;;;;0.57;0.57;;;20.70;1.00;;;;;;4995488;28;20434;-79
2021/05/29 11:43:22;;;;;;;0.80;0.70;;;20.30;1.00;;;;;;4994739;28;20022;-79
2021/05/29 11:45:56;;;;;;;2.60;0.73;;;20.30;1.00;;;;;;4994962;28;20030;-79
2021/05/29 11:48:35;;;;;;;0.75;0.70;;;20.50;1.00;;;;;;4994386;28;20125;-79
2021/05/29 11:53:40;;;;;;;1.75;0.60;;;20.70;1.00;;;;;;4996874;28;20088;-80
2021/05/29 11:56:06;;;;;;;1.17;0.77;;;20.80;1.00;;;;;;4995272;28;20023;-80
2021/05/29 11:58:53;;;;;;;1.77;1.13;;;20.80;1.00;;;;;;4996142;28;20411;-79
2021/05/29 12:01:36;;;;;;;0.52;0.50;;;20.60;1.00;;;;;;4995466;28;20414;-79
2021/05/29 12:04:04;;;;;;;1.15;0.60;;;20.90;1.00;;;;;;4995110;28;20477;-79
2021/05/29 12:06:38;;;;;;;0.60;0.60;;;21.30;1.00;;;;;;4995468;28;20022;-79
2021/05/29 12:09:11;;;;;;;0.60;0.60;;;20.80;1.00;;;;;;4993793;28;20379;-80
2021/05/29 12:11:39;;;;;;;1.73;0.60;;;20.30;1.00;;;;;;4995791;28;20090;-78
2021/05/29 12:14:08;;;;;;;0.50;0.50;;;20.30;1.00;;;;;;4995787;28;20029;-80
2021/05/29 12:16:36;;;;;;;2.13;0.57;;;20.40;1.00;;;;;;4993667;28;20553;-80
2021/05/29 12:19:02;;;;;;;0.60;0.50;;;21.20;1.00;;;;;;4993811;28;20341;-80
2021/05/29 12:21:47;;;;;;;0.70;0.60;;;21.60;1.00;;;;;;4995055;28;20045;-79
2021/05/29 12:24:13;;;;;;;1.88;0.60;;;21.50;1.00;;;;;;4994906;28;20102;-79
2021/05/29 12:26:39;;;;;;;1.70;0.77;;;21.30;1.00;;;;;;4994597;28;20483;-79
2021/05/29 12:29:06;;;;;;;0.40;0.40;;;21.30;1.00;;;;;;4993312;28;20081;-79
2021/05/29 12:31:47;;;;;;;2.78;0.50;;;21.30;1.00;;;;;;4994084;28;20085;-79
2021/05/29 12:34:14;;;;;;;1.00;0.63;;;21.70;1.00;;;;;;4995654;28;20050;-79
2021/05/29 12:36:59;;;;;;;0.65;0.47;;;22.00;1.00;;;;;;4994884;28;20022;-80
2021/05/29 12:39:43;;;;;;;0.57;0.50;;;21.90;1.00;;;;;;4994397;28;20023;-79
2021/05/29 12:42:22;;;;;;;0.90;0.90;;;21.40;1.00;;;;;;4993899;28;20046;-79
2021/05/29 12:44:49;;;;;;;0.60;0.50;;;21.50;1.00;;;;;;4994272;28;20030;-79
2021/05/29 12:47:20;;;;;;;0.40;0.40;;;21.20;1.00;;;;;;4994114;28;20026;-79
2021/05/29 12:49:46;;;;;;;0.60;0.50;;;20.50;1.00;;;;;;4995463;28;20022;-79
2021/05/29 12:52:33;;;;;;;2.15;0.57;;;21.00;1.00;;;;;;4993136;28;20379;-79
2021/05/29 12:55:00;;;;;;;1.55;0.75;;;21.20;1.00;;;;;;4992647;28;20022;-79
2021/05/29 12:57:43;;;;;;;1.67;0.80;;;21.00;1.00;;;;;;4994335;28;20033;-79
2021/05/29 13:00:22;;;;;;;1.27;0.80;;;21.00;1.00;;;;;;4994618;28;20030;-80
2021/05/29 13:08:28;;;;;;;0.50;0.43;;;21.30;1.00;;;;;;4996266;28;20057;-79
2021/05/29 13:10:59;;;;;;;0.68;0.40;;;21.00;1.00;;;;;;4996158;28;20046;-79
2021/05/29 13:13:25;;;;;;;0.70;0.50;;;21.10;1.00;;;;;;4995235;28;20057;-78
2021/05/29 13:16:03;;;;;;;0.70;0.50;;;21.00;1.00;;;;;;4994233;28;20561;-78
2021/05/29 13:18:34;;;;;;;0.70;0.55;;;20.80;1.00;;;;;;4993579;28;20018;-79
2021/05/29 13:21:05;;;;;;;0.70;0.68;;;21.20;1.00;;;;;;4995056;28;20052;-79
2021/05/29 13:23:43;;;;;;;1.42;0.75;;;21.90;1.00;;;;;;4995697;28;20367;-79
2021/05/29 13:26:09;;;;;;;2.67;0.60;;;21.80;1.00;;;;;;4995318;28;20049;-79